Time;durP1;ratioP1;P1;durP2;ratioP2;P2;SDS_P1;SDS_P2;PMS_P1;PMS_P2;Temp;Humidity;BMP_temperature;BMP_pressure;BME280_temperature;BME280_humidity;BME280_pressure;Samples;Min_cycle;Max_cycle;Signal;HPM_P1;HPM_P2
2022/11/15 00:00:50;;;;;;;40.58;31.38;;;;;;;6.87;100.00;100743.41;4990830;28;20057;-78
2022/11/15 00:03:18;;;;;;;38.75;30.55;;;;;;;6.90;100.00;100738.84;4994446;28;20026;-78
2022/11/15 00:05:44;;;;;;;40.72;30.63;;;;;;;6.94;100.00;100742.09;4993245;28;20034;-77
2022/11/15 00:08:10;;;;;;;44.47;31.08;;;;;;;7.00;100.00;100746.13;4993878;28;20041;-78
2022/11/15 00:10:36;;;;;;;41.42;29.90;;;;;;;7.05;100.00;100741.44;4992075;28;20054;-77
2022/11/15 00:13:05;;;;;;;43.30;30.95;;;;;;;7.11;100.00;100746.28;4992992;28;20030;-77
2022/11/15 00:15:34;;;;;;;39.08;30.40;;;;;;;7.15;100.00;100747.78;4992536;28;20117;-77
2022/11/15 00:17:59;;;;;;;41.50;30.48;;;;;;;7.20;100.00;100743.97;4991923;28;20474;-78
2022/11/15 00:20:25;;;;;;;37.90;29.50;;;;;;;7.27;100.00;100748.84;4977663;28;20106;-77
2022/11/15 00:22:50;;;;;;;40.17;30.25;;;;;;;7.31;100.00;100740.69;4973091;28;20837;-77
2022/11/15 00:25:15;;;;;;;38.33;30.02;;;;;;;7.38;100.00;100741.16;4996439;28;20030;-77
2022/11/15 00:27:41;;;;;;;33.60;28.02;;;;;;;7.41;100.00;100741.78;4991863;28;20026;-76
2022/11/15 00:30:06;;;;;;;35.45;28.00;;;;;;;7.45;100.00;100748.50;4993767;28;20145;-80
2022/11/15 00:32:32;;;;;;;34.90;28.02;;;;;;;7.49;100.00;100744.75;5007840;28;20233;-77
2022/11/15 00:34:58;;;;;;;35.80;28.80;;;;;;;7.52;100.00;100739.34;4991182;28;20058;-80
2022/11/15 00:37:23;;;;;;;34.17;27.42;;;;;;;7.57;100.00;100735.59;4991847;28;20026;-80
2022/11/15 00:39:48;;;;;;;32.83;26.48;;;;;;;7.60;100.00;100738.00;4991525;28;20386;-76
2022/11/15 00:42:14;;;;;;;35.65;27.48;;;;;;;7.63;100.00;100741.31;4993405;28;20434;-76
2022/11/15 00:44:40;;;;;;;36.53;27.95;;;;;;;7.67;100.00;100736.72;4991328;28;20029;-76
2022/11/15 00:47:05;;;;;;;34.38;26.08;;;;;;;7.72;100.00;100724.16;5007144;28;20117;-76
2022/11/15 00:49:31;;;;;;;33.45;26.25;;;;;;;7.76;100.00;100731.72;4992088;28;20022;-76
2022/11/15 00:51:56;;;;;;;31.63;25.95;;;;;;;7.79;100.00;100721.03;4990613;28;20026;-76
2022/11/15 00:54:22;;;;;;;34.22;26.88;;;;;;;7.87;100.00;100723.16;4991175;28;20030;-79
2022/11/15 00:56:47;;;;;;;32.00;26.33;;;;;;;7.88;100.00;100724.84;4992111;28;20471;-75
2022/11/15 00:59:13;;;;;;;31.58;26.50;;;;;;;7.91;100.00;100721.19;4992165;28;21496;-79
2022/11/15 01:01:38;;;;;;;29.27;25.67;;;;;;;7.95;100.00;100718.25;4990541;28;20029;-76
2022/11/15 01:04:03;;;;;;;36.10;26.13;;;;;;;7.99;100.00;100721.50;4992933;28;20085;-76
2022/11/15 01:06:37;;;;;;;30.65;25.58;;;;;;;8.05;100.00;100727.22;4992850;28;20068;-76
2022/11/15 01:09:03;;;;;;;29.05;25.58;;;;;;;8.07;100.00;100720.09;4990366;28;20113;-76
2022/11/15 01:11:29;;;;;;;32.38;25.90;;;;;;;8.10;100.00;100717.28;4992787;28;20117;-76
2022/11/15 01:13:54;;;;;;;32.10;26.20;;;;;;;8.12;100.00;100711.94;4978952;28;20456;-76
2022/11/15 01:16:20;;;;;;;32.42;26.33;;;;;;;8.15;100.00;100717.81;4972822;28;20270;-76
2022/11/15 01:18:46;;;;;;;32.92;26.08;;;;;;;8.16;100.00;100716.88;4976171;28;20062;-80
2022/11/15 01:21:18;;;;;;;32.17;25.20;;;;;;;8.18;100.00;100712.34;4992120;28;20072;-76
2022/11/15 01:23:44;;;;;;;31.42;25.45;;;;;;;8.23;100.00;100708.59;4990738;28;20411;-76
2022/11/15 01:26:13;;;;;;;33.17;26.05;;;;;;;8.24;100.00;100705.88;4994079;28;20113;-76
2022/11/15 01:28:40;;;;;;;30.27;24.85;;;;;;;8.27;100.00;100703.03;4993104;28;20081;-76
2022/11/15 01:31:11;;;;;;;33.03;25.98;;;;;;;8.29;100.00;100698.53;5007761;28;20080;-80
2022/11/15 01:33:36;;;;;;;30.63;25.08;;;;;;;8.29;100.00;100695.06;4991730;28;20023;-76
2022/11/15 01:36:16;;;;;;;32.10;25.17;;;;;;;8.32;100.00;100697.50;4992087;28;20478;-76
2022/11/15 01:38:42;;;;;;;36.35;26.38;;;;;;;8.33;100.00;100697.41;4991764;28;20412;-76
2022/11/15 01:41:16;;;;;;;34.22;26.35;;;;;;;8.38;100.00;100699.72;4991890;28;20081;-76
2022/11/15 01:43:41;;;;;;;28.85;25.75;;;;;;;8.41;100.00;100696.94;4991145;28;20105;-76
2022/11/15 01:46:33;;;;;;;31.98;25.92;;;;;;;8.45;100.00;100703.66;4989842;28;20114;-76
2022/11/15 01:49:03;;;;;;;33.17;26.30;;;;;;;8.48;100.00;100699.03;4992183;28;20535;-76
2022/11/15 01:51:33;;;;;;;34.38;27.33;;;;;;;8.52;100.00;100699.66;4989531;28;20088;-76
2022/11/15 01:54:04;;;;;;;34.85;26.52;;;;;;;8.56;100.00;100698.50;4991056;28;20026;-75
2022/11/15 01:56:35;;;;;;;33.10;26.42;;;;;;;8.60;100.00;100697.34;4991453;28;20089;-76
2022/11/15 01:59:04;;;;;;;38.40;27.73;;;;;;;8.65;100.00;100691.78;5003505;28;20530;-75
2022/11/15 02:01:33;;;;;;;31.67;26.65;;;;;;;8.68;100.00;100689.78;5006458;28;20049;-79
2022/11/15 02:04:05;;;;;;;36.78;27.95;;;;;;;8.76;100.00;100687.47;4997865;28;20030;-75
2022/11/15 02:06:31;;;;;;;39.33;29.10;;;;;;;8.84;100.00;100680.88;4990939;28;20030;-76
2022/11/15 02:08:58;;;;;;;38.55;29.52;;;;;;;8.88;100.00;100679.72;5004725;28;20083;-79
2022/11/15 02:11:23;;;;;;;37.78;28.55;;;;;;;8.92;100.00;100678.56;5001654;28;20049;-75
2022/11/15 02:13:50;;;;;;;37.25;29.58;;;;;;;9.00;100.00;100670.97;5000648;28;20467;-79
2022/11/15 02:16:24;;;;;;;37.58;29.58;;;;;;;9.03;100.00;100683.88;5006109;28;20553;-75
2022/11/15 02:19:09;;;;;;;37.30;29.30;;;;;;;9.07;100.00;100682.72;4971136;28;20114;-76
2022/11/15 02:22:05;;;;;;;38.30;28.95;;;;;;;9.12;100.00;100678.00;4972162;28;20034;-76
2022/11/15 02:24:55;;;;;;;35.78;28.48;;;;;;;9.13;100.00;100671.78;4972991;28;20030;-76
2022/11/15 02:27:38;;;;;;;37.03;30.65;;;;;;;9.23;100.00;100666.75;4978102;28;20026;-76
2022/11/15 02:30:14;;;;;;;38.55;30.35;;;;;;;9.27;100.00;100666.41;4990246;28;20475;-76
2022/11/15 02:32:49;;;;;;;39.38;30.70;;;;;;;9.34;100.00;100672.06;4988612;28;20030;-77
2022/11/15 02:35:37;;;;;;;42.60;30.58;;;;;;;9.34;100.00;100672.06;4988502;28;20478;-76
2022/11/15 02:38:17;;;;;;;37.75;30.42;;;;;;;9.38;100.00;100670.91;4991913;28;20447;-76
2022/11/15 02:40:56;;;;;;;37.42;30.92;;;;;;;9.46;100.00;100665.09;5004784;28;20054;-77
2022/11/15 02:49:29;;;;;;;43.05;30.98;;;;;;;9.55;100.00;100659.16;4990467;28;20092;-77
2022/11/15 02:51:55;;;;;;;38.42;31.35;;;;;;;9.57;100.00;100658.09;4988411;28;20030;-76
2022/11/15 02:54:26;;;;;;;39.97;31.48;;;;;;;9.59;100.00;100645.69;4988462;28;20034;-76
2022/11/15 02:57:00;;;;;;;37.33;30.88;;;;;;;9.64;100.00;100650.63;4989488;28;20054;-76
2022/11/15 02:59:34;;;;;;;38.85;31.40;;;;;;;9.67;100.00;100643.38;4990755;28;20053;-76
2022/11/15 03:02:20;;;;;;;40.30;31.40;;;;;;;9.69;100.00;100630.13;4989665;28;20097;-76
2022/11/15 03:05:04;;;;;;;37.15;30.02;;;;;;;9.69;100.00;100633.59;4988355;28;20100;-75
2022/11/15 03:07:36;;;;;;;35.72;29.48;;;;;;;9.74;100.00;100636.69;4986348;28;20431;-76
2022/11/15 03:10:11;;;;;;;37.33;29.27;;;;;;;9.74;100.00;100635.88;4989511;28;20410;-76
2022/11/15 03:13:00;;;;;;;33.63;29.48;;;;;;;9.78;100.00;100639.09;4969920;28;20026;-76
2022/11/15 03:15:34;;;;;;;34.97;29.08;;;;;;;9.77;100.00;100626.91;4968649;28;20491;-76
2022/11/15 03:18:33;;;;;;;33.65;28.55;;;;;;;9.83;100.00;100636.97;4971359;28;20026;-80
2022/11/15 03:21:03;;;;;;;35.90;29.17;;;;;;;9.84;100.00;100641.28;4977113;28;20125;-76
2022/11/15 03:23:30;;;;;;;38.03;30.02;;;;;;;9.81;100.00;100639.72;4987398;28;20033;-77
2022/11/15 03:25:59;;;;;;;36.65;29.25;;;;;;;9.83;100.00;100637.81;4989728;28;20026;-76
2022/11/15 03:28:39;;;;;;;35.40;28.83;;;;;;;9.86;100.00;100627.06;4989663;28;20467;-76
2022/11/15 03:31:46;;;;;;;39.13;29.65;;;;;;;9.86;100.00;100626.22;4988815;28;20049;-76
2022/11/15 03:33:53;;;;;;;36.00;28.75;;;;;;;9.86;100.00;100642.00;4989829;28;20132;-76
2022/11/15 03:36:19;;;;;;;36.83;29.33;;;;;;;9.87;100.00;100639.25;4987824;28;20496;-76
2022/11/15 03:38:45;;;;;;;36.70;28.30;;;;;;;9.88;100.00;100630.41;4987830;28;20398;-76
2022/11/15 03:41:24;;;;;;;35.20;28.30;;;;;;;9.90;100.00;100632.94;4989578;28;20035;-79
2022/11/15 03:43:57;;;;;;;35.97;28.65;;;;;;;9.90;100.00;100630.31;4988802;28;20034;-75
2022/11/15 03:46:31;;;;;;;36.05;28.73;;;;;;;9.92;100.00;100637.13;4990527;28;20235;-76
2022/11/15 03:49:10;;;;;;;36.22;29.23;;;;;;;9.90;100.00;100628.50;4988775;28;20029;-75
2022/11/15 03:51:36;;;;;;;37.05;28.98;;;;;;;9.93;100.00;100630.91;4988784;28;20411;-76
2022/11/15 03:54:06;;;;;;;39.53;29.52;;;;;;;9.93;100.00;100638.78;4990189;28;20029;-76
2022/11/15 03:56:34;;;;;;;40.03;29.52;;;;;;;9.95;100.00;100641.31;4990137;28;20053;-76
2022/11/15 03:59:00;;;;;;;40.13;29.83;;;;;;;9.96;100.00;100638.56;4987400;28;20153;-76
2022/11/15 04:01:26;;;;;;;44.45;31.15;;;;;;;9.98;100.00;100634.03;4990142;28;20442;-75
2022/11/15 04:03:51;;;;;;;40.50;30.95;;;;;;;10.00;100.00;100632.13;4987242;28;20022;-76
2022/11/15 04:06:17;;;;;;;41.17;31.75;;;;;;;10.00;100.00;100629.50;4988720;28;20104;-75
2022/11/15 04:08:42;;;;;;;39.20;30.75;;;;;;;10.02;100.00;100632.88;4988073;28;20027;-76
2022/11/15 04:11:07;;;;;;;39.72;30.70;;;;;;;10.03;100.00;100633.72;4989020;28;20034;-75
2022/11/15 04:13:33;;;;;;;42.55;31.65;;;;;;;10.02;100.00;100624.97;4986684;28;20052;-76
2022/11/15 04:15:58;;;;;;;40.10;31.17;;;;;;;10.02;100.00;100624.97;4988029;28;20038;-76
2022/11/15 04:18:24;;;;;;;42.58;31.77;;;;;;;10.01;100.00;100625.94;4987222;28;20030;-76
2022/11/15 04:26:20;;;;;;;39.75;32.33;;;;;;;10.03;100.00;100629.28;4988819;28;20089;-76
2022/11/15 04:31:33;;;;;;;45.25;32.67;;;;;;;10.04;100.00;100617.81;4988710;28;20045;-77
2022/11/15 04:34:02;;;;;;;40.45;31.23;;;;;;;10.05;100.00;100622.13;4987429;28;20037;-76
2022/11/15 04:39:12;;;;;;;40.65;31.48;;;;;;;10.03;100.00;100634.53;4992871;28;20514;-80
2022/11/15 04:41:37;;;;;;;41.38;32.33;;;;;;;10.04;100.00;100630.13;4992885;28;20023;-76
2022/11/15 04:44:03;;;;;;;41.72;32.13;;;;;;;10.04;100.00;100636.22;4991067;28;20041;-76
2022/11/15 04:46:28;;;;;;;39.30;31.42;;;;;;;10.07;100.00;100635.16;4992033;28;20498;-76
2022/11/15 04:48:54;;;;;;;40.35;30.27;;;;;;;10.09;100.00;100629.78;4992875;28;20029;-76
2022/11/15 04:51:20;;;;;;;39.85;31.00;;;;;;;10.07;100.00;100629.88;4995820;28;20030;-76
2022/11/15 04:53:45;;;;;;;37.92;31.23;;;;;;;10.08;100.00;100631.56;4992083;28;20026;-76
2022/11/15 04:56:11;;;;;;;44.08;31.83;;;;;;;10.10;100.00;100628.81;4993266;28;20050;-76
2022/11/15 04:58:37;;;;;;;40.00;31.65;;;;;;;10.07;100.00;100624.63;4991888;28;20026;-79
2022/11/15 05:01:10;;;;;;;41.08;30.55;;;;;;;10.07;100.00;100629.88;4996772;28;20043;-79
2022/11/15 05:06:19;;;;;;;39.22;30.55;;;;;;;10.08;100.00;100625.47;4978794;28;20065;-79
2022/11/15 05:08:45;;;;;;;39.40;30.23;;;;;;;10.08;100.00;100621.06;4990987;28;20035;-79
2022/11/15 05:11:10;;;;;;;38.95;29.52;;;;;;;10.08;100.00;100625.47;4991557;28;20034;-76
2022/11/15 05:13:35;;;;;;;37.13;29.58;;;;;;;10.09;100.00;100621.88;4986517;28;20018;-76
2022/11/15 05:16:01;;;;;;;39.63;30.10;;;;;;;10.08;100.00;100626.31;4991432;28;20030;-76
2022/11/15 05:18:26;;;;;;;40.08;29.52;;;;;;;10.08;100.00;100622.84;4990846;28;20498;-76
2022/11/15 05:20:51;;;;;;;38.38;29.45;;;;;;;10.09;100.00;100627.16;4990560;28;20042;-76
2022/11/15 05:23:17;;;;;;;38.90;30.52;;;;;;;10.09;100.00;100624.53;4990264;28;20064;-76
2022/11/15 05:25:42;;;;;;;43.35;29.23;;;;;;;10.09;100.00;100619.25;4991964;28;20030;-76
2022/11/15 05:28:07;;;;;;;39.17;29.20;;;;;;;10.09;100.00;100617.47;4989125;28;20442;-76
2022/11/15 05:30:33;;;;;;;37.97;28.60;;;;;;;10.09;100.00;100616.63;4990579;28;20022;-79
2022/11/15 05:32:59;;;;;;;40.30;29.15;;;;;;;10.07;100.00;100616.75;4992014;28;20022;-77
2022/11/15 05:35:41;;;;;;;36.83;28.30;;;;;;;10.07;100.00;100614.13;4991585;28;20037;-76
2022/11/15 05:38:07;;;;;;;33.30;27.08;;;;;;;10.09;100.00;100611.38;5007117;28;20033;-76
2022/11/15 05:40:35;;;;;;;35.58;27.38;;;;;;;10.05;100.00;100610.78;4989398;28;20019;-76
2022/11/15 05:43:03;;;;;;;37.72;28.38;;;;;;;10.04;100.00;100609.94;4989171;28;20056;-76
2022/11/15 05:45:29;;;;;;;34.50;27.42;;;;;;;10.02;100.00;100606.59;4992034;28;20014;-76
2022/11/15 05:48:00;;;;;;;35.13;27.75;;;;;;;10.02;100.00;100611.00;4989454;28;20081;-77
2022/11/15 05:50:27;;;;;;;34.33;28.60;;;;;;;10.00;100.00;100603.22;4992144;28;20061;-76
2022/11/15 05:52:54;;;;;;;34.47;27.85;;;;;;;9.99;100.00;100614.66;4991459;28;20031;-76
2022/11/15 05:55:20;;;;;;;33.85;28.83;;;;;;;10.00;100.00;100613.72;4992260;28;20050;-76
2022/11/15 05:57:45;;;;;;;36.15;28.13;;;;;;;10.04;100.00;100619.63;4990155;28;20104;-76
2022/11/15 06:00:11;;;;;;;35.60;28.30;;;;;;;10.05;100.00;100626.53;5007390;28;20045;-76
2022/11/15 06:02:37;;;;;;;35.45;28.10;;;;;;;10.03;100.00;100631.09;4990479;28;20028;-76
2022/11/15 06:05:03;;;;;;;35.53;27.65;;;;;;;10.04;100.00;100633.59;4995105;28;20033;-76
2022/11/15 06:07:29;;;;;;;33.35;28.23;;;;;;;10.04;100.00;100630.97;4995983;28;20026;-76
2022/11/15 06:09:54;;;;;;;38.75;29.20;;;;;;;10.04;100.00;100644.09;5006868;28;20022;-76
2022/11/15 06:12:20;;;;;;;36.60;29.13;;;;;;;10.08;100.00;100628.09;4991046;28;20064;-76
2022/11/15 06:14:45;;;;;;;36.67;28.90;;;;;;;10.07;100.00;100637.78;4989836;28;20045;-76
2022/11/15 06:17:10;;;;;;;36.60;28.98;;;;;;;10.09;100.00;100637.66;4990373;28;20054;-79
2022/11/15 06:19:36;;;;;;;38.25;30.02;;;;;;;10.10;100.00;100637.53;4989989;28;20023;-79
2022/11/15 06:22:01;;;;;;;38.03;28.90;;;;;;;10.11;100.00;100647.09;4991458;28;20038;-76
2022/11/15 06:24:27;;;;;;;36.05;29.60;;;;;;;10.14;100.00;100646.03;4988452;28;20030;-76
2022/11/15 06:26:52;;;;;;;36.00;29.45;;;;;;;10.13;100.00;100645.19;5004354;28;20037;-76
2022/11/15 06:29:18;;;;;;;41.47;28.88;;;;;;;10.14;100.00;100640.78;4989486;28;20100;-76
2022/11/15 06:31:43;;;;;;;36.67;29.17;;;;;;;10.14;100.00;100635.53;4988742;28;20034;-76
2022/11/15 06:34:08;;;;;;;37.72;29.40;;;;;;;10.15;100.00;100645.09;4989955;28;20411;-76
2022/11/15 06:36:36;;;;;;;34.80;28.30;;;;;;;10.12;100.00;100637.44;4988922;28;20069;-78
2022/11/15 06:39:02;;;;;;;37.00;28.88;;;;;;;10.11;100.00;100648.91;4989610;28;20026;-74
2022/11/15 06:41:28;;;;;;;35.92;27.13;;;;;;;10.11;100.00;100651.53;4988619;28;20030;-77
2022/11/15 06:43:53;;;;;;;34.60;25.80;;;;;;;10.09;100.00;100643.75;4987712;28;20080;-76
2022/11/15 06:46:18;;;;;;;34.05;25.15;;;;;;;10.09;100.00;100645.56;4987426;28;20034;-77
2022/11/15 06:48:44;;;;;;;33.70;24.50;;;;;;;10.09;100.00;100642.91;4989559;28;20473;-78
2022/11/15 06:51:09;;;;;;;32.00;24.38;;;;;;;10.09;100.00;100650.81;4990352;28;20441;-76
2022/11/15 06:53:35;;;;;;;30.58;23.77;;;;;;;10.06;100.00;100657.13;5003759;28;20042;-77
2022/11/15 06:56:05;;;;;;;32.15;23.98;;;;;;;10.08;100.00;100657.00;4989336;28;20495;-76
2022/11/15 06:58:31;;;;;;;28.77;22.48;;;;;;;10.05;100.00;100655.47;4987849;28;20088;-76
2022/11/15 07:01:05;;;;;;;27.65;22.70;;;;;;;10.04;100.00;100661.66;4986502;28;20027;-76
2022/11/15 07:03:31;;;;;;;27.80;22.45;;;;;;;10.03;100.00;100663.47;4987700;28;20034;-76
2022/11/15 07:05:57;;;;;;;27.35;22.02;;;;;;;10.02;100.00;100669.66;4987475;28;20483;-76
2022/11/15 07:08:26;;;;;;;29.77;22.70;;;;;;;10.01;100.00;100665.38;4989614;28;20030;-77
2022/11/15 07:10:51;;;;;;;30.67;22.38;;;;;;;10.02;100.00;100664.41;4988483;28;20081;-76
2022/11/15 07:13:17;;;;;;;26.85;21.73;;;;;;;10.01;100.00;100668.00;4995536;28;20030;-76
2022/11/15 07:15:42;;;;;;;26.17;21.15;;;;;;;10.01;100.00;100675.88;4988206;28;20030;-76
2022/11/15 07:18:08;;;;;;;26.90;21.13;;;;;;;10.01;100.00;100675.03;4990291;28;20104;-77
2022/11/15 07:20:33;;;;;;;24.77;21.17;;;;;;;10.02;100.00;100685.44;4987726;28;20371;-75
2022/11/15 07:23:03;;;;;;;24.52;20.65;;;;;;;10.02;100.00;100685.44;5004166;28;20045;-76
2022/11/15 07:25:28;;;;;;;26.63;21.85;;;;;;;10.02;100.00;100680.19;4987475;28;20021;-77
2022/11/15 07:27:56;;;;;;;25.73;21.05;;;;;;;10.04;100.00;100688.78;4988021;28;20026;-76
2022/11/15 07:30:26;;;;;;;25.40;20.98;;;;;;;10.01;100.00;100688.19;4988721;28;20025;-76
2022/11/15 07:32:59;;;;;;;28.00;21.10;;;;;;;10.03;100.00;100686.28;4985345;28;20508;-76
2022/11/15 07:35:25;;;;;;;28.17;20.70;;;;;;;10.01;100.00;100668.00;4986157;28;20034;-77
2022/11/15 07:38:01;;;;;;;26.45;20.73;;;;;;;10.06;100.00;100670.28;4989086;28;20565;-76
2022/11/15 07:40:31;;;;;;;23.38;19.42;;;;;;;10.04;100.00;100673.03;4987580;28;20018;-77
2022/11/15 07:43:01;;;;;;;26.52;20.48;;;;;;;10.04;100.00;100661.66;4986936;28;20119;-78
2022/11/15 07:45:27;;;;;;;25.10;20.40;;;;;;;10.06;100.00;100662.38;4985558;28;20022;-76
2022/11/15 07:47:52;;;;;;;24.88;19.58;;;;;;;10.07;100.00;100665.84;4987960;28;20093;-76
2022/11/15 07:50:19;;;;;;;26.42;19.48;;;;;;;10.07;100.00;100665.84;4989021;28;20010;-79
2022/11/15 07:52:44;;;;;;;23.95;18.67;;;;;;;10.08;100.00;100657.00;4986287;28;20529;-76
2022/11/15 07:55:11;;;;;;;24.45;18.33;;;;;;;10.09;100.00;100666.56;4989474;28;20042;-79
2022/11/15 07:57:37;;;;;;;22.42;18.25;;;;;;;10.11;100.00;100676.03;4987116;28;20117;-76
2022/11/15 08:00:06;;;;;;;23.00;18.45;;;;;;;10.09;100.00;100670.03;4989543;28;20019;-78
2022/11/15 08:02:34;;;;;;;23.75;18.77;;;;;;;10.12;100.00;100674.22;4988866;28;20113;-79
2022/11/15 08:05:03;;;;;;;22.85;18.17;;;;;;;10.15;100.00;100668.75;4987598;28;20038;-77
2022/11/15 08:07:32;;;;;;;22.50;16.67;;;;;;;10.17;100.00;100680.81;4987577;28;20126;-77
2022/11/15 08:10:00;;;;;;;29.02;17.63;;;;;;;10.23;100.00;100695.31;4988875;28;20559;-79
2022/11/15 08:12:28;;;;;;;21.98;17.35;;;;;;;10.25;100.00;100680.28;4994107;28;20034;-79
2022/11/15 08:14:55;;;;;;;18.95;15.77;;;;;;;10.21;100.00;100682.28;4989843;28;20034;-79
2022/11/15 08:17:20;;;;;;;18.98;15.43;;;;;;;10.20;100.00;100677.13;4991469;28;20402;-77
2022/11/15 08:19:46;;;;;;;18.58;15.20;;;;;;;10.19;100.00;100678.06;5007775;28;20034;-77
2022/11/15 08:22:12;;;;;;;19.05;14.45;;;;;;;10.16;100.00;100675.69;4993857;28;20058;-79
2022/11/15 08:24:39;;;;;;;18.00;14.02;;;;;;;10.15;100.00;100671.38;4991422;28;20089;-77
2022/11/15 08:27:04;;;;;;;17.58;13.43;;;;;;;10.13;100.00;100670.66;5000919;28;20030;-77
2022/11/15 08:29:32;;;;;;;17.90;13.77;;;;;;;10.13;100.00;100670.66;5005037;28;20041;-81
2022/11/15 08:31:58;;;;;;;16.92;13.07;;;;;;;10.13;100.00;100660.13;4992655;28;20559;-81
2022/11/15 08:34:24;;;;;;;16.20;13.30;;;;;;;10.13;100.00;100670.66;4977025;28;20050;-78
2022/11/15 08:37:00;;;;;;;13.95;12.13;;;;;;;10.15;100.00;100660.84;4983508;28;20025;-76
2022/11/15 08:39:28;;;;;;;16.55;12.02;;;;;;;10.13;100.00;100660.13;5005639;28;20037;-76
2022/11/15 08:41:54;;;;;;;17.77;11.35;;;;;;;10.16;100.00;100659.91;4994693;28;20113;-76
2022/11/15 08:44:19;;;;;;;16.67;10.57;;;;;;;10.18;100.00;100658.00;4992837;28;20550;-76
2022/11/15 08:46:48;;;;;;;14.57;10.63;;;;;;;10.22;100.00;100654.22;4991896;28;20116;-77
2022/11/15 08:49:13;;;;;;;13.07;9.52;;;;;;;10.23;100.00;100648.84;4992880;28;20483;-78
2022/11/15 08:51:39;;;;;;;16.45;9.63;;;;;;;10.32;100.00;100647.28;4990849;28;20026;-77
2022/11/15 08:54:04;;;;;;;17.83;9.65;;;;;;;10.36;100.00;100640.84;4991873;28;20026;-80
2022/11/15 08:56:29;;;;;;;10.45;8.32;;;;;;;10.38;100.00;100633.66;4992286;28;20041;-81
2022/11/15 08:58:55;;;;;;;27.52;9.90;;;;;;;10.40;100.00;100637.03;4991934;28;20053;-77
2022/11/15 09:01:21;;;;;;;13.00;8.20;;;;;;;10.47;100.00;100633.00;4990842;28;20419;-81
2022/11/15 09:03:47;;;;;;;13.27;6.93;;;;;;;10.49;100.00;100638.97;4989040;28;20586;-81
2022/11/15 09:06:13;;;;;;;14.88;7.78;;;;;;;10.54;100.00;100631.56;4990319;28;20105;-76
2022/11/15 09:08:38;;;;;;;12.73;6.55;;;;;;;10.55;100.00;100625.34;4995040;28;20014;-76
2022/11/15 09:11:09;;;;;;;7.13;5.65;;;;;;;10.60;100.00;100619.72;4990899;28;20109;-77
2022/11/15 09:13:36;;;;;;;7.93;5.20;;;;;;;10.60;100.00;100617.91;4990484;28;20491;-76
2022/11/15 09:16:03;;;;;;;6.13;5.03;;;;;;;10.62;100.00;100608.13;5004740;28;20475;-77
2022/11/15 09:18:28;;;;;;;5.78;4.28;;;;;;;10.65;100.00;100610.50;4991112;28;20535;-76
2022/11/15 09:20:57;;;;;;;5.95;4.40;;;;;;;10.65;100.00;100604.41;4989888;28;20032;-76
2022/11/15 09:23:24;;;;;;;5.60;4.13;;;;;;;10.65;100.00;100612.31;4990697;28;20026;-76
2022/11/15 09:25:50;;;;;;;7.30;4.05;;;;;;;10.65;100.00;100610.50;4991198;28;20112;-76
2022/11/15 09:28:15;;;;;;;8.50;4.43;;;;;;;10.71;100.00;100608.34;4990769;28;20129;-76
2022/11/15 09:30:40;;;;;;;5.55;3.58;;;;;;;10.74;100.00;100602.84;4977901;28;20027;-76
2022/11/15 09:33:08;;;;;;;6.00;3.33;;;;;;;10.76;100.00;100603.56;4988307;28;20037;-76
2022/11/15 09:35:33;;;;;;;4.97;3.10;;;;;;;10.77;100.00;100603.44;4990401;28;20033;-77
2022/11/15 09:37:59;;;;;;;5.25;2.85;;;;;;;10.78;99.45;100604.28;4992313;28;20026;-78
2022/11/15 09:40:26;;;;;;;5.78;2.70;;;;;;;10.76;98.32;100601.75;4990280;28;20022;-79
2022/11/15 09:43:23;;;;;;;5.20;2.45;;;;;;;10.79;97.91;100603.31;4989805;28;20329;-76
2022/11/15 09:46:15;;;;;;;3.35;2.38;;;;;;;10.83;97.86;100610.88;4990130;28;20030;-76
2022/11/15 09:48:52;;;;;;;4.07;2.10;;;;;;;10.80;95.21;100597.09;4961222;28;20462;-76
2022/11/15 09:51:26;;;;;;;7.82;2.65;;;;;;;10.83;96.43;100607.41;4992685;28;20077;-76
2022/11/15 09:53:54;;;;;;;4.75;2.05;;;;;;;10.83;93.90;100602.16;4991824;28;20322;-76
2022/11/15 09:56:45;;;;;;;6.30;1.88;;;;;;;10.82;93.50;100592.56;4990215;28;20061;-76
2022/11/15 09:59:44;;;;;;;4.63;2.08;;;;;;;10.85;93.72;100594.97;4972138;28;20129;-76
2022/11/15 10:02:23;;;;;;;5.95;1.80;;;;;;;10.85;93.52;100602.84;4994633;28;20498;-76
2022/11/15 10:04:49;;;;;;;10.70;2.10;;;;;;;10.90;92.52;100598.06;4987713;28;20049;-76
2022/11/15 10:07:23;;;;;;;5.13;1.92;;;;;;;10.92;91.17;100609.31;4991808;28;20030;-77
2022/11/15 10:09:52;;;;;;;4.30;1.40;;;;;;;10.93;89.94;100600.44;4990867;28;20030;-79
2022/11/15 10:12:18;;;;;;;5.80;1.77;;;;;;;10.95;89.22;100595.91;4992145;28;20030;-81
2022/11/15 10:14:46;;;;;;;6.05;2.13;;;;;;;10.93;89.06;100598.66;4984633;28;20049;-76
2022/11/15 10:17:27;;;;;;;3.85;1.42;;;;;;;10.99;91.04;100586.78;4999084;28;20165;-76
2022/11/15 10:20:01;;;;;;;5.88;1.70;;;;;;;11.01;89.72;100598.03;4990348;28;20038;-76
2022/11/15 10:22:50;;;;;;;5.82;1.55;;;;;;;11.04;88.77;100596.97;4990355;28;20027;-76
2022/11/15 10:25:17;;;;;;;5.40;1.80;;;;;;;11.07;88.36;100580.91;4971433;28;20117;-76
2022/11/15 10:27:47;;;;;;;5.10;1.40;;;;;;;11.04;86.98;100571.47;4970842;28;20023;-76
2022/11/15 10:30:15;;;;;;;5.35;1.45;;;;;;;11.08;85.85;100579.94;4990070;28;20027;-76
2022/11/15 10:32:43;;;;;;;4.32;1.45;;;;;;;11.06;85.58;100574.81;4988072;28;20026;-78
2022/11/15 10:35:29;;;;;;;6.43;1.45;;;;;;;11.09;86.85;100566.66;4994060;28;20065;-78
2022/11/15 10:38:06;;;;;;;6.35;2.35;;;;;;;11.11;86.11;100567.38;4988146;28;20040;-75
2022/11/15 10:40:32;;;;;;;5.47;1.50;;;;;;;11.09;84.16;100571.09;4990899;28;20538;-85
2022/11/15 10:43:26;;;;;;;4.85;1.40;;;;;;;11.15;86.30;100560.06;4986811;28;20061;-84
2022/11/15 10:45:52;;;;;;;4.38;1.20;;;;;;;11.11;83.43;100554.22;4996643;28;20326;-76
2022/11/15 10:48:17;;;;;;;7.60;1.58;;;;;;;11.13;83.41;100539.13;4990285;28;20423;-76
2022/11/15 10:50:46;;;;;;;6.75;1.52;;;;;;;11.19;82.89;100543.03;4990088;28;20026;-76
2022/11/15 10:53:16;;;;;;;4.78;1.48;;;;;;;11.23;82.92;100537.44;4989815;28;20049;-78
2022/11/15 10:55:48;;;;;;;4.10;1.45;;;;;;;11.29;81.69;100542.19;4990878;28;20483;-79
2022/11/15 10:58:38;;;;;;;5.53;1.65;;;;;;;11.38;82.44;100529.22;4988013;28;20034;-77
2022/11/15 11:01:11;;;;;;;5.22;1.30;;;;;;;11.48;81.95;100527.50;4988783;28;20517;-76
2022/11/15 11:03:39;;;;;;;5.40;1.50;;;;;;;11.55;81.89;100524.22;4983845;28;20030;-77
2022/11/15 11:06:08;;;;;;;5.38;1.63;;;;;;;11.62;80.95;100537.75;4989973;28;20030;-77
2022/11/15 11:08:33;;;;;;;7.50;1.55;;;;;;;11.68;80.25;100521.41;4990413;28;20026;-76
2022/11/15 11:11:03;;;;;;;3.97;1.10;;;;;;;11.79;79.66;100516.09;4989793;28;20037;-76
2022/11/15 11:13:38;;;;;;;5.30;1.40;;;;;;;11.75;79.22;100501.50;4988234;28;20033;-77
2022/11/15 11:16:31;;;;;;;6.72;1.25;;;;;;;11.76;79.46;100504.97;4989110;28;20030;-76
2022/11/15 11:19:34;;;;;;;5.93;1.40;;;;;;;11.74;80.64;100504.25;4998393;28;20037;-76
2022/11/15 11:22:19;;;;;;;5.60;1.48;;;;;;;11.71;80.41;100493.97;4988908;28;20038;-76
2022/11/15 11:25:18;;;;;;;6.15;1.40;;;;;;;11.72;80.81;100487.72;4989863;28;20506;-76
2022/11/15 11:27:55;;;;;;;9.48;1.65;;;;;;;11.69;79.96;100480.94;4978898;28;20034;-75
2022/11/15 11:30:31;;;;;;;7.65;1.63;;;;;;;11.76;80.29;100471.53;4996988;28;20030;-83
2022/11/15 11:33:08;;;;;;;6.85;1.80;;;;;;;11.87;79.98;100473.28;5003157;28;20041;-76
2022/11/15 11:36:10;;;;;;;4.13;1.67;;;;;;;12.01;79.22;100472.09;4987015;28;20022;-83
2022/11/15 11:39:11;;;;;;;5.60;1.70;;;;;;;12.12;78.97;100459.66;4987779;28;20034;-76
2022/11/15 11:42:00;;;;;;;7.45;1.50;;;;;;;12.14;77.06;100455.09;4987800;28;20030;-77